sensor_id;sensor_type;location;lat;lon;timestamp;P1;durP1;ratioP1;P2;durP2;ratioP2
61675;SDS011;47574;52.090;5.244;2023-04-24T00:01:45;1.5;;;1.3;;
61675;SDS011;47574;52.090;5.244;2023-04-24T00:03:21;1.5;;;1.4;;
61675;SDS011;47574;52.090;5.244;2023-04-24T00:04:58;1.11;;;1.0;;
61675;SDS011;47574;52.090;5.244;2023-04-24T00:06:34;1.3;;;1.2;;
61675;SDS011;47574;52.090;5.244;2023-04-24T00:09:47;1.2;;;1.2;;
61675;SDS011;47574;52.090;5.244;2023-04-24T00:11:25;1.5;;;1.4;;
61675;SDS011;47574;52.090;5.244;2023-04-24T00:13:02;1.9;;;1.8;;
61675;SDS011;47574;52.090;5.244;2023-04-24T00:16:14;2.8;;;2.31;;
61675;SDS011;47574;52.090;5.244;2023-04-24T00:17:50;2.5;;;2.4;;
61675;SDS011;47574;52.090;5.244;2023-04-24T00:19:26;2.9;;;2.5;;
61675;SDS011;47574;52.090;5.244;2023-04-24T00:22:41;2.7;;;2.6;;
61675;SDS011;47574;52.090;5.244;2023-04-24T00:24:16;3.1;;;2.8;;
61675;SDS011;47574;52.090;5.244;2023-04-24T00:25:54;3.4;;;3.1;;
61675;SDS011;47574;52.090;5.244;2023-04-24T00:27:30;2.6;;;2.5;;
61675;SDS011;47574;52.090;5.244;2023-04-24T00:30:44;2.6;;;2.4;;
61675;SDS011;47574;52.090;5.244;2023-04-24T00:32:20;2.6;;;2.5;;
61675;SDS011;47574;52.090;5.244;2023-04-24T00:33:57;3.1;;;2.9;;
61675;SDS011;47574;52.090;5.244;2023-04-24T00:37:10;3.4;;;3.1;;
61675;SDS011;47574;52.090;5.244;2023-04-24T00:38:46;3.1;;;2.9;;
61675;SDS011;47574;52.090;5.244;2023-04-24T00:40:22;3.1;;;2.8;;
61675;SDS011;47574;52.090;5.244;2023-04-24T00:43:36;3.3;;;2.9;;
61675;SDS011;47574;52.090;5.244;2023-04-24T00:45:12;3.2;;;3.0;;
61675;SDS011;47574;52.090;5.244;2023-04-24T00:46:49;4.0;;;3.4;;
61675;SDS011;47574;52.090;5.244;2023-04-24T00:48:26;4.2;;;3.9;;
61675;SDS011;47574;52.090;5.244;2023-04-24T00:51:42;3.9;;;3.6;;
61675;SDS011;47574;52.090;5.244;2023-04-24T00:53:18;4.91;;;4.5;;
61675;SDS011;47574;52.090;5.244;2023-04-24T00:54:55;4.41;;;4.1;;
61675;SDS011;47574;52.090;5.244;2023-04-24T00:58:10;5.0;;;4.61;;
61675;SDS011;47574;52.090;5.244;2023-04-24T00:59:47;5.4;;;5.0;;
61675;SDS011;47574;52.090;5.244;2023-04-24T01:01:23;5.5;;;5.0;;
61675;SDS011;47574;52.090;5.244;2023-04-24T01:04:41;5.8;;;5.3;;
61675;SDS011;47574;52.090;5.244;2023-04-24T01:06:18;5.2;;;4.8;;
61675;SDS011;47574;52.090;5.244;2023-04-24T01:07:56;5.7;;;5.3;;
61675;SDS011;47574;52.090;5.244;2023-04-24T01:09:33;6.5;;;5.9;;
61675;SDS011;47574;52.090;5.244;2023-04-24T01:12:47;6.5;;;5.9;;
61675;SDS011;47574;52.090;5.244;2023-04-24T01:14:23;5.7;;;5.2;;
61675;SDS011;47574;52.090;5.244;2023-04-24T01:16:00;6.5;;;5.8;;
61675;SDS011;47574;52.090;5.244;2023-04-24T01:19:15;7.0;;;6.3;;
61675;SDS011;47574;52.090;5.244;2023-04-24T01:20:57;6.3;;;5.8;;
61675;SDS011;47574;52.090;5.244;2023-04-24T01:22:39;7.1;;;6.4;;
61675;SDS011;47574;52.090;5.244;2023-04-24T01:24:16;7.0;;;6.4;;
61675;SDS011;47574;52.090;5.244;2023-04-24T01:27:31;6.8;;;6.1;;
61675;SDS011;47574;52.090;5.244;2023-04-24T01:29:08;6.6;;;6.1;;
61675;SDS011;47574;52.090;5.244;2023-04-24T01:30:45;7.4;;;6.7;;
61675;SDS011;47574;52.090;5.244;2023-04-24T01:32:22;7.7;;;7.0;;
61675;SDS011;47574;52.090;5.244;2023-04-24T01:35:35;8.6;;;7.7;;
61675;SDS011;47574;52.090;5.244;2023-04-24T01:37:13;7.6;;;6.8;;
61675;SDS011;47574;52.090;5.244;2023-04-24T01:38:50;7.5;;;6.8;;
61675;SDS011;47574;52.090;5.244;2023-04-24T01:42:04;7.4;;;6.7;;
61675;SDS011;47574;52.090;5.244;2023-04-24T01:43:41;8.1;;;7.4;;
61675;SDS011;47574;52.090;5.244;2023-04-24T01:45:18;7.7;;;7.0;;
61675;SDS011;47574;52.090;5.244;2023-04-24T01:48:31;7.9;;;7.3;;
61675;SDS011;47574;52.090;5.244;2023-04-24T01:50:10;7.2;;;6.7;;
61675;SDS011;47574;52.090;5.244;2023-04-24T01:51:47;8.1;;;6.7;;
61675;SDS011;47574;52.090;5.244;2023-04-24T01:53:24;6.8;;;6.1;;
61675;SDS011;47574;52.090;5.244;2023-04-24T01:56:40;6.1;;;5.6;;
61675;SDS011;47574;52.090;5.244;2023-04-24T01:58:18;5.7;;;5.2;;
61675;SDS011;47574;52.090;5.244;2023-04-24T01:59:56;5.8;;;4.8;;
61675;SDS011;47574;52.090;5.244;2023-04-24T02:03:11;5.11;;;4.7;;
61675;SDS011;47574;52.090;5.244;2023-04-24T02:04:47;5.3;;;4.91;;
61675;SDS011;47574;52.090;5.244;2023-04-24T02:06:23;5.11;;;4.7;;
61675;SDS011;47574;52.090;5.244;2023-04-24T02:07:59;4.91;;;4.61;;
61675;SDS011;47574;52.090;5.244;2023-04-24T02:11:13;3.8;;;3.5;;
61675;SDS011;47574;52.090;5.244;2023-04-24T02:12:49;4.91;;;4.2;;
61675;SDS011;47574;52.090;5.244;2023-04-24T02:14:26;4.41;;;4.1;;
61675;SDS011;47574;52.090;5.244;2023-04-24T02:17:38;5.2;;;4.7;;
61675;SDS011;47574;52.090;5.244;2023-04-24T02:19:15;4.7;;;4.3;;
61675;SDS011;47574;52.090;5.244;2023-04-24T02:20:51;5.4;;;4.91;;
61675;SDS011;47574;52.090;5.244;2023-04-24T02:24:05;5.11;;;4.7;;
61675;SDS011;47574;52.090;5.244;2023-04-24T02:25:42;5.3;;;4.8;;
61675;SDS011;47574;52.090;5.244;2023-04-24T02:28:55;5.5;;;5.0;;
61675;SDS011;47574;52.090;5.244;2023-04-24T02:32:09;5.8;;;5.3;;
61675;SDS011;47574;52.090;5.244;2023-04-24T02:33:45;5.7;;;5.2;;
61675;SDS011;47574;52.090;5.244;2023-04-24T02:35:21;5.7;;;5.3;;
61675;SDS011;47574;52.090;5.244;2023-04-24T02:38:35;5.3;;;4.91;;
61675;SDS011;47574;52.090;5.244;2023-04-24T02:40:11;5.6;;;5.11;;
61675;SDS011;47574;52.090;5.244;2023-04-24T02:41:48;5.2;;;4.8;;
61675;SDS011;47574;52.090;5.244;2023-04-24T02:45:02;5.3;;;4.91;;
61675;SDS011;47574;52.090;5.244;2023-04-24T02:46:39;5.2;;;4.8;;
61675;SDS011;47574;52.090;5.244;2023-04-24T02:48:16;5.11;;;4.7;;
61675;SDS011;47574;52.090;5.244;2023-04-24T02:49:52;5.9;;;5.4;;
61675;SDS011;47574;52.090;5.244;2023-04-24T02:53:05;5.0;;;4.61;;
61675;SDS011;47574;52.090;5.244;2023-04-24T02:54:43;5.3;;;4.91;;
61675;SDS011;47574;52.090;5.244;2023-04-24T02:56:19;5.3;;;4.8;;
61675;SDS011;47574;52.090;5.244;2023-04-24T02:59:32;5.6;;;5.11;;
61675;SDS011;47574;52.090;5.244;2023-04-24T03:01:08;5.8;;;5.4;;
61675;SDS011;47574;52.090;5.244;2023-04-24T03:02:45;5.9;;;5.3;;
61675;SDS011;47574;52.090;5.244;2023-04-24T03:05:59;6.2;;;5.7;;
61675;SDS011;47574;52.090;5.244;2023-04-24T03:07:35;6.3;;;5.8;;
61675;SDS011;47574;52.090;5.244;2023-04-24T03:09:12;6.8;;;6.2;;
61675;SDS011;47574;52.090;5.244;2023-04-24T03:10:49;7.0;;;6.5;;
61675;SDS011;47574;52.090;5.244;2023-04-24T03:15:39;8.31;;;7.3;;
61675;SDS011;47574;52.090;5.244;2023-04-24T03:17:16;7.5;;;6.9;;
61675;SDS011;47574;52.090;5.244;2023-04-24T03:20:30;8.6;;;7.9;;
61675;SDS011;47574;52.090;5.244;2023-04-24T03:22:07;8.4;;;7.6;;
61675;SDS011;47574;52.090;5.244;2023-04-24T03:23:44;8.6;;;7.9;;
61675;SDS011;47574;52.090;5.244;2023-04-24T03:25:20;7.8;;;7.2;;
61675;SDS011;47574;52.090;5.244;2023-04-24T03:28:34;8.0;;;7.2;;
61675;SDS011;47574;52.090;5.244;2023-04-24T03:30:12;8.81;;;8.0;;
61675;SDS011;47574;52.090;5.244;2023-04-24T03:31:49;9.4;;;8.5;;
61675;SDS011;47574;52.090;5.244;2023-04-24T03:35:02;9.9;;;9.0;;
61675;SDS011;47574;52.090;5.244;2023-04-24T03:36:39;10.21;;;9.31;;
61675;SDS011;47574;52.090;5.244;2023-04-24T03:38:15;8.81;;;8.0;;
61675;SDS011;47574;52.090;5.244;2023-04-24T03:41:29;10.1;;;9.0;;
61675;SDS011;47574;52.090;5.244;2023-04-24T03:43:05;8.81;;;8.1;;
61675;SDS011;47574;52.090;5.244;2023-04-24T03:44:41;8.5;;;7.8;;
61675;SDS011;47574;52.090;5.244;2023-04-24T03:46:18;8.4;;;7.7;;
61675;SDS011;47574;52.090;5.244;2023-04-24T03:49:32;6.8;;;6.2;;
61675;SDS011;47574;52.090;5.244;2023-04-24T03:51:08;7.8;;;7.2;;
61675;SDS011;47574;52.090;5.244;2023-04-24T03:52:45;7.9;;;7.1;;
61675;SDS011;47574;52.090;5.244;2023-04-24T03:55:59;8.0;;;7.3;;
61675;SDS011;47574;52.090;5.244;2023-04-24T03:57:35;7.1;;;6.5;;
61675;SDS011;47574;52.090;5.244;2023-04-24T03:59:12;6.8;;;6.2;;
61675;SDS011;47574;52.090;5.244;2023-04-24T04:02:25;6.6;;;6.0;;
61675;SDS011;47574;52.090;5.244;2023-04-24T04:04:01;5.6;;;5.2;;
61675;SDS011;47574;52.090;5.244;2023-04-24T04:05:37;7.1;;;6.4;;
61675;SDS011;47574;52.090;5.244;2023-04-24T04:07:15;6.2;;;5.7;;
61675;SDS011;47574;52.090;5.244;2023-04-24T04:10:29;6.7;;;6.2;;
61675;SDS011;47574;52.090;5.244;2023-04-24T04:12:06;7.2;;;6.5;;
61675;SDS011;47574;52.090;5.244;2023-04-24T04:13:43;7.3;;;6.7;;
61675;SDS011;47574;52.090;5.244;2023-04-24T04:16:57;7.3;;;6.7;;
61675;SDS011;47574;52.090;5.244;2023-04-24T04:18:34;7.4;;;6.7;;
61675;SDS011;47574;52.090;5.244;2023-04-24T04:20:11;7.9;;;7.2;;
61675;SDS011;47574;52.090;5.244;2023-04-24T04:21:47;7.6;;;6.9;;
61675;SDS011;47574;52.090;5.244;2023-04-24T04:24:59;7.7;;;7.0;;
61675;SDS011;47574;52.090;5.244;2023-04-24T04:26:36;7.6;;;7.0;;
61675;SDS011;47574;52.090;5.244;2023-04-24T04:28:14;8.6;;;7.7;;
61675;SDS011;47574;52.090;5.244;2023-04-24T04:31:27;8.2;;;7.5;;
61675;SDS011;47574;52.090;5.244;2023-04-24T04:33:03;8.1;;;7.4;;
61675;SDS011;47574;52.090;5.244;2023-04-24T04:34:39;8.4;;;7.6;;
61675;SDS011;47574;52.090;5.244;2023-04-24T04:37:51;8.1;;;7.3;;
61675;SDS011;47574;52.090;5.244;2023-04-24T04:39:27;8.2;;;7.4;;
61675;SDS011;47574;52.090;5.244;2023-04-24T04:41:04;7.2;;;6.7;;
61675;SDS011;47574;52.090;5.244;2023-04-24T04:44:16;7.2;;;6.7;;
61675;SDS011;47574;52.090;5.244;2023-04-24T04:45:52;9.5;;;8.5;;
61675;SDS011;47574;52.090;5.244;2023-04-24T04:47:28;8.31;;;7.2;;
61675;SDS011;47574;52.090;5.244;2023-04-24T04:49:04;7.5;;;6.8;;
61675;SDS011;47574;52.090;5.244;2023-04-24T04:52:16;7.5;;;6.8;;
61675;SDS011;47574;52.090;5.244;2023-04-24T04:53:52;8.81;;;7.9;;
61675;SDS011;47574;52.090;5.244;2023-04-24T04:55:29;8.2;;;7.5;;
61675;SDS011;47574;52.090;5.244;2023-04-24T04:58:42;8.5;;;7.7;;
61675;SDS011;47574;52.090;5.244;2023-04-24T05:00:18;8.71;;;7.9;;
61675;SDS011;47574;52.090;5.244;2023-04-24T05:01:55;8.9;;;8.1;;
61675;SDS011;47574;52.090;5.244;2023-04-24T05:05:07;8.9;;;8.0;;
61675;SDS011;47574;52.090;5.244;2023-04-24T05:06:44;8.6;;;7.7;;
61675;SDS011;47574;52.090;5.244;2023-04-24T05:08:20;8.81;;;8.1;;
61675;SDS011;47574;52.090;5.244;2023-04-24T05:09:57;9.1;;;8.2;;
61675;SDS011;47574;52.090;5.244;2023-04-24T05:13:09;9.4;;;8.5;;
61675;SDS011;47574;52.090;5.244;2023-04-24T05:14:45;9.21;;;8.31;;
61675;SDS011;47574;52.090;5.244;2023-04-24T05:16:21;9.1;;;8.31;;
61675;SDS011;47574;52.090;5.244;2023-04-24T05:19:34;9.4;;;8.4;;
61675;SDS011;47574;52.090;5.244;2023-04-24T05:21:10;8.81;;;7.9;;
61675;SDS011;47574;52.090;5.244;2023-04-24T05:22:46;8.0;;;7.2;;
61675;SDS011;47574;52.090;5.244;2023-04-24T05:25:59;8.0;;;7.2;;
61675;SDS011;47574;52.090;5.244;2023-04-24T05:27:35;8.31;;;7.5;;
61675;SDS011;47574;52.090;5.244;2023-04-24T05:29:12;7.3;;;6.6;;
61675;SDS011;47574;52.090;5.244;2023-04-24T05:34:00;6.0;;;5.5;;
61675;SDS011;47574;52.090;5.244;2023-04-24T05:35:36;6.8;;;6.1;;
61675;SDS011;47574;52.090;5.244;2023-04-24T05:37:13;7.1;;;6.4;;
61675;SDS011;47574;52.090;5.244;2023-04-24T05:40:25;6.9;;;6.2;;
61675;SDS011;47574;52.090;5.244;2023-04-24T05:42:01;5.7;;;4.8;;
61675;SDS011;47574;52.090;5.244;2023-04-24T05:43:38;4.91;;;4.41;;
61675;SDS011;47574;52.090;5.244;2023-04-24T05:46:50;2.0;;;1.8;;
61675;SDS011;47574;52.090;5.244;2023-04-24T05:48:27;2.31;;;1.2;;
61675;SDS011;47574;52.090;5.244;2023-04-24T05:50:03;0.9;;;0.9;;
61675;SDS011;47574;52.090;5.244;2023-04-24T05:53:17;1.3;;;1.0;;
61675;SDS011;47574;52.090;5.244;2023-04-24T05:54:53;1.4;;;1.2;;
61675;SDS011;47574;52.090;5.244;2023-04-24T05:56:29;1.4;;;1.2;;
61675;SDS011;47574;52.090;5.244;2023-04-24T05:58:06;1.7;;;1.11;;
61675;SDS011;47574;52.090;5.244;2023-04-24T06:01:18;1.5;;;1.11;;
61675;SDS011;47574;52.090;5.244;2023-04-24T06:02:55;1.0;;;0.8;;
61675;SDS011;47574;52.090;5.244;2023-04-24T06:04:31;1.5;;;0.9;;
61675;SDS011;47574;52.090;5.244;2023-04-24T06:07:44;2.31;;;0.9;;
61675;SDS011;47574;52.090;5.244;2023-04-24T06:10:56;1.6;;;1.3;;
61675;SDS011;47574;52.090;5.244;2023-04-24T06:14:09;1.3;;;1.2;;
61675;SDS011;47574;52.090;5.244;2023-04-24T06:15:45;3.0;;;1.5;;
61675;SDS011;47574;52.090;5.244;2023-04-24T06:17:21;1.5;;;1.2;;
61675;SDS011;47574;52.090;5.244;2023-04-24T06:18:57;2.4;;;1.3;;
61675;SDS011;47574;52.090;5.244;2023-04-24T06:22:09;2.4;;;1.3;;
61675;SDS011;47574;52.090;5.244;2023-04-24T06:23:45;1.8;;;1.5;;
61675;SDS011;47574;52.090;5.244;2023-04-24T06:25:21;4.1;;;1.8;;
61675;SDS011;47574;52.090;5.244;2023-04-24T06:28:37;2.31;;;1.9;;
61675;SDS011;47574;52.090;5.244;2023-04-24T06:30:13;3.4;;;2.8;;
61675;SDS011;47574;52.090;5.244;2023-04-24T06:31:50;5.2;;;4.7;;
61675;SDS011;47574;52.090;5.244;2023-04-24T06:35:02;9.0;;;6.9;;
61675;SDS011;47574;52.090;5.244;2023-04-24T06:36:39;10.8;;;8.0;;
61675;SDS011;47574;52.090;5.244;2023-04-24T06:38:15;10.5;;;9.0;;
61675;SDS011;47574;52.090;5.244;2023-04-24T06:39:52;15.1;;;10.8;;
61675;SDS011;47574;52.090;5.244;2023-04-24T06:43:04;14.6;;;10.21;;
61675;SDS011;47574;52.090;5.244;2023-04-24T06:44:40;14.5;;;10.8;;
61675;SDS011;47574;52.090;5.244;2023-04-24T06:46:16;15.7;;;11.2;;
61675;SDS011;47574;52.090;5.244;2023-04-24T06:49:28;17.3;;;12.2;;
61675;SDS011;47574;52.090;5.244;2023-04-24T06:51:04;15.8;;;12.3;;
61675;SDS011;47574;52.090;5.244;2023-04-24T06:52:41;19.0;;;12.8;;
61675;SDS011;47574;52.090;5.244;2023-04-24T06:55:53;17.2;;;13.0;;
61675;SDS011;47574;52.090;5.244;2023-04-24T06:57:29;19.11;;;13.5;;
61675;SDS011;47574;52.090;5.244;2023-04-24T06:59:06;19.61;;;14.2;;
61675;SDS011;47574;52.090;5.244;2023-04-24T07:02:18;22.0;;;13.6;;
61675;SDS011;47574;52.090;5.244;2023-04-24T07:03:54;17.41;;;12.9;;
61675;SDS011;47574;52.090;5.244;2023-04-24T07:05:31;20.0;;;13.0;;
61675;SDS011;47574;52.090;5.244;2023-04-24T07:07:07;18.61;;;12.1;;
61675;SDS011;47574;52.090;5.244;2023-04-24T07:10:19;18.5;;;12.3;;
61675;SDS011;47574;52.090;5.244;2023-04-24T07:11:55;16.11;;;11.7;;
61675;SDS011;47574;52.090;5.244;2023-04-24T07:13:31;18.8;;;11.3;;
61675;SDS011;47574;52.090;5.244;2023-04-24T07:16:45;17.11;;;11.2;;
61675;SDS011;47574;52.090;5.244;2023-04-24T07:18:22;18.61;;;12.1;;
61675;SDS011;47574;52.090;5.244;2023-04-24T07:19:58;20.6;;;11.7;;
61675;SDS011;47574;52.090;5.244;2023-04-24T07:23:10;21.0;;;12.6;;
61675;SDS011;47574;52.090;5.244;2023-04-24T07:24:46;20.2;;;11.8;;
61675;SDS011;47574;52.090;5.244;2023-04-24T07:26:22;20.0;;;11.7;;
61675;SDS011;47574;52.090;5.244;2023-04-24T07:28:00;19.91;;;11.7;;
61675;SDS011;47574;52.090;5.244;2023-04-24T07:31:12;32.5;;;14.4;;
61675;SDS011;47574;52.090;5.244;2023-04-24T07:32:49;20.3;;;11.5;;
61675;SDS011;47574;52.090;5.244;2023-04-24T07:34:25;18.2;;;10.9;;
61675;SDS011;47574;52.090;5.244;2023-04-24T07:37:37;17.41;;;10.8;;
61675;SDS011;47574;52.090;5.244;2023-04-24T07:39:14;18.41;;;11.6;;
61675;SDS011;47574;52.090;5.244;2023-04-24T07:40:50;20.11;;;11.7;;
61675;SDS011;47574;52.090;5.244;2023-04-24T07:44:04;22.7;;;12.5;;
61675;SDS011;47574;52.090;5.244;2023-04-24T07:45:40;20.7;;;12.1;;
61675;SDS011;47574;52.090;5.244;2023-04-24T07:47:16;22.7;;;10.9;;
61675;SDS011;47574;52.090;5.244;2023-04-24T07:50:28;21.3;;;11.0;;
61675;SDS011;47574;52.090;5.244;2023-04-24T07:52:05;20.5;;;9.1;;
61675;SDS011;47574;52.090;5.244;2023-04-24T07:53:42;25.7;;;9.1;;
61675;SDS011;47574;52.090;5.244;2023-04-24T07:55:19;22.3;;;8.9;;
61675;SDS011;47574;52.090;5.244;2023-04-24T07:58:32;26.4;;;9.21;;
61675;SDS011;47574;52.090;5.244;2023-04-24T08:00:08;26.0;;;8.81;;
61675;SDS011;47574;52.090;5.244;2023-04-24T08:01:45;23.9;;;9.0;;
61675;SDS011;47574;52.090;5.244;2023-04-24T08:04:57;29.5;;;8.9;;
61675;SDS011;47574;52.090;5.244;2023-04-24T08:06:34;26.6;;;8.4;;
61675;SDS011;47574;52.090;5.244;2023-04-24T08:08:10;25.9;;;8.0;;
61675;SDS011;47574;52.090;5.244;2023-04-24T08:11:22;29.2;;;7.7;;
61675;SDS011;47574;52.090;5.244;2023-04-24T08:12:59;26.1;;;6.9;;
61675;SDS011;47574;52.090;5.244;2023-04-24T08:14:35;20.3;;;6.4;;
61675;SDS011;47574;52.090;5.244;2023-04-24T08:16:11;23.0;;;6.0;;
61675;SDS011;47574;52.090;5.244;2023-04-24T08:19:24;24.3;;;5.7;;
61675;SDS011;47574;52.090;5.244;2023-04-24T08:21:00;21.6;;;5.8;;
61675;SDS011;47574;52.090;5.244;2023-04-24T08:22:36;21.8;;;5.6;;
61675;SDS011;47574;52.090;5.244;2023-04-24T08:25:48;22.5;;;5.5;;
61675;SDS011;47574;52.090;5.244;2023-04-24T08:27:25;20.3;;;5.0;;
61675;SDS011;47574;52.090;5.244;2023-04-24T08:29:01;19.5;;;4.61;;
61675;SDS011;47574;52.090;5.244;2023-04-24T08:32:15;21.2;;;5.2;;
61675;SDS011;47574;52.090;5.244;2023-04-24T08:33:51;19.41;;;4.5;;
61675;SDS011;47574;52.090;5.244;2023-04-24T08:35:27;20.7;;;5.3;;
61675;SDS011;47574;52.090;5.244;2023-04-24T08:37:03;20.0;;;4.7;;
61675;SDS011;47574;52.090;5.244;2023-04-24T08:40:16;16.4;;;4.5;;
61675;SDS011;47574;52.090;5.244;2023-04-24T08:41:52;14.9;;;3.4;;
61675;SDS011;47574;52.090;5.244;2023-04-24T08:43:29;12.4;;;3.3;;
61675;SDS011;47574;52.090;5.244;2023-04-24T08:46:47;14.3;;;3.3;;
61675;SDS011;47574;52.090;5.244;2023-04-24T08:48:24;13.5;;;3.4;;
61675;SDS011;47574;52.090;5.244;2023-04-24T08:50:02;15.0;;;3.7;;
61675;SDS011;47574;52.090;5.244;2023-04-24T08:53:15;13.6;;;3.5;;
61675;SDS011;47574;52.090;5.244;2023-04-24T08:54:53;16.7;;;3.9;;
61675;SDS011;47574;52.090;5.244;2023-04-24T08:56:30;12.9;;;3.0;;
61675;SDS011;47574;52.090;5.244;2023-04-24T08:58:10;16.2;;;3.6;;
61675;SDS011;47574;52.090;5.244;2023-04-24T09:01:22;13.6;;;3.5;;
61675;SDS011;47574;52.090;5.244;2023-04-24T09:03:01;10.7;;;3.3;;
61675;SDS011;47574;52.090;5.244;2023-04-24T09:04:40;18.3;;;4.8;;
61675;SDS011;47574;52.090;5.244;2023-04-24T09:06:18;14.9;;;3.9;;
61675;SDS011;47574;52.090;5.244;2023-04-24T09:09:38;11.6;;;3.8;;
61675;SDS011;47574;52.090;5.244;2023-04-24T09:11:14;16.2;;;4.0;;
61675;SDS011;47574;52.090;5.244;2023-04-24T09:12:52;16.7;;;3.8;;
61675;SDS011;47574;52.090;5.244;2023-04-24T09:16:06;16.0;;;3.9;;
61675;SDS011;47574;52.090;5.244;2023-04-24T09:17:43;19.3;;;3.9;;
61675;SDS011;47574;52.090;5.244;2023-04-24T09:19:19;16.7;;;3.8;;
61675;SDS011;47574;52.090;5.244;2023-04-24T09:22:34;15.9;;;3.5;;
61675;SDS011;47574;52.090;5.244;2023-04-24T09:24:14;15.9;;;4.3;;
61675;SDS011;47574;52.090;5.244;2023-04-24T09:25:54;13.8;;;3.8;;
61675;SDS011;47574;52.090;5.244;2023-04-24T09:27:31;18.0;;;3.8;;
61675;SDS011;47574;52.090;5.244;2023-04-24T09:30:54;13.7;;;3.2;;
61675;SDS011;47574;52.090;5.244;2023-04-24T09:32:38;14.9;;;3.3;;
61675;SDS011;47574;52.090;5.244;2023-04-24T09:34:18;13.9;;;3.3;;
61675;SDS011;47574;52.090;5.244;2023-04-24T09:35:57;14.1;;;3.4;;
61675;SDS011;47574;52.090;5.244;2023-04-24T09:39:12;14.7;;;3.7;;
61675;SDS011;47574;52.090;5.244;2023-04-24T09:40:51;10.5;;;3.2;;
61675;SDS011;47574;52.090;5.244;2023-04-24T09:42:28;10.3;;;2.9;;
61675;SDS011;47574;52.090;5.244;2023-04-24T09:44:11;14.2;;;3.4;;
61675;SDS011;47574;52.090;5.244;2023-04-24T09:47:24;8.2;;;3.3;;
61675;SDS011;47574;52.090;5.244;2023-04-24T09:49:07;10.5;;;3.0;;
61675;SDS011;47574;52.090;5.244;2023-04-24T09:50:45;11.7;;;2.7;;
61675;SDS011;47574;52.090;5.244;2023-04-24T09:52:22;8.4;;;2.9;;
61675;SDS011;47574;52.090;5.244;2023-04-24T09:55:35;7.8;;;3.1;;
61675;SDS011;47574;52.090;5.244;2023-04-24T09:57:15;9.4;;;2.6;;
61675;SDS011;47574;52.090;5.244;2023-04-24T09:58:51;7.9;;;2.5;;
61675;SDS011;47574;52.090;5.244;2023-04-24T10:02:15;7.7;;;2.31;;
61675;SDS011;47574;52.090;5.244;2023-04-24T10:03:53;12.3;;;2.5;;
61675;SDS011;47574;52.090;5.244;2023-04-24T10:05:30;6.6;;;2.6;;
61675;SDS011;47574;52.090;5.244;2023-04-24T10:07:07;9.5;;;2.6;;
61675;SDS011;47574;52.090;5.244;2023-04-24T10:10:20;9.0;;;2.4;;
61675;SDS011;47574;52.090;5.244;2023-04-24T10:11:57;9.71;;;2.5;;
61675;SDS011;47574;52.090;5.244;2023-04-24T10:13:35;9.21;;;2.21;;
61675;SDS011;47574;52.090;5.244;2023-04-24T10:16:49;8.4;;;2.21;;
61675;SDS011;47574;52.090;5.244;2023-04-24T10:18:28;9.4;;;2.4;;
61675;SDS011;47574;52.090;5.244;2023-04-24T10:20:06;7.3;;;2.4;;
61675;SDS011;47574;52.090;5.244;2023-04-24T10:21:43;8.5;;;2.5;;
61675;SDS011;47574;52.090;5.244;2023-04-24T10:24:57;8.5;;;2.31;;
61675;SDS011;47574;52.090;5.244;2023-04-24T10:26:35;5.7;;;1.8;;
61675;SDS011;47574;52.090;5.244;2023-04-24T10:28:11;8.9;;;1.8;;
61675;SDS011;47574;52.090;5.244;2023-04-24T10:31:31;8.31;;;2.21;;
61675;SDS011;47574;52.090;5.244;2023-04-24T10:33:07;4.0;;;1.4;;
61675;SDS011;47574;52.090;5.244;2023-04-24T10:34:44;3.6;;;1.4;;
61675;SDS011;47574;52.090;5.244;2023-04-24T10:36:21;4.41;;;1.4;;
61675;SDS011;47574;52.090;5.244;2023-04-24T10:39:41;4.41;;;1.3;;
61675;SDS011;47574;52.090;5.244;2023-04-24T10:41:17;5.8;;;1.5;;
61675;SDS011;47574;52.090;5.244;2023-04-24T10:42:54;2.7;;;1.11;;
61675;SDS011;47574;52.090;5.244;2023-04-24T10:46:16;4.41;;;1.3;;
61675;SDS011;47574;52.090;5.244;2023-04-24T10:47:57;5.3;;;1.11;;
61675;SDS011;47574;52.090;5.244;2023-04-24T10:49:34;3.5;;;1.11;;
61675;SDS011;47574;52.090;5.244;2023-04-24T10:51:12;7.0;;;1.11;;
61675;SDS011;47574;52.090;5.244;2023-04-24T10:54:25;4.91;;;1.4;;
61675;SDS011;47574;52.090;5.244;2023-04-24T10:56:04;4.91;;;1.2;;
61675;SDS011;47574;52.090;5.244;2023-04-24T10:58:00;3.8;;;1.2;;
61675;SDS011;47574;52.090;5.244;2023-04-24T10:59:38;5.8;;;1.2;;
61675;SDS011;47574;52.090;5.244;2023-04-24T11:03:21;2.8;;;1.0;;
61675;SDS011;47574;52.090;5.244;2023-04-24T11:05:02;4.2;;;1.11;;
61675;SDS011;47574;52.090;5.244;2023-04-24T11:06:39;5.8;;;1.11;;
61675;SDS011;47574;52.090;5.244;2023-04-24T11:08:22;5.7;;;1.3;;
61675;SDS011;47574;52.090;5.244;2023-04-24T11:10:00;4.91;;;1.3;;
61675;SDS011;47574;52.090;5.244;2023-04-24T11:13:15;6.9;;;1.9;;
61675;SDS011;47574;52.090;5.244;2023-04-24T11:14:59;4.5;;;1.5;;
61675;SDS011;47574;52.090;5.244;2023-04-24T11:16:39;4.3;;;1.4;;
61675;SDS011;47574;52.090;5.244;2023-04-24T11:18:36;7.1;;;1.9;;
61675;SDS011;47574;52.090;5.244;2023-04-24T11:20:16;6.2;;;1.6;;
61675;SDS011;47574;52.090;5.244;2023-04-24T11:23:35;5.4;;;1.7;;
61675;SDS011;47574;52.090;5.244;2023-04-24T11:25:11;7.1;;;1.7;;
61675;SDS011;47574;52.090;5.244;2023-04-24T11:26:47;6.2;;;1.8;;
61675;SDS011;47574;52.090;5.244;2023-04-24T11:30:00;9.71;;;1.9;;
61675;SDS011;47574;52.090;5.244;2023-04-24T11:31:38;8.2;;;2.0;;
61675;SDS011;47574;52.090;5.244;2023-04-24T11:33:16;5.9;;;1.6;;
61675;SDS011;47574;52.090;5.244;2023-04-24T11:34:57;6.4;;;1.5;;
61675;SDS011;47574;52.090;5.244;2023-04-24T11:38:11;3.1;;;1.2;;
61675;SDS011;47574;52.090;5.244;2023-04-24T11:39:50;5.6;;;1.2;;
61675;SDS011;47574;52.090;5.244;2023-04-24T11:41:29;4.91;;;1.4;;
61675;SDS011;47574;52.090;5.244;2023-04-24T11:44:42;2.21;;;0.9;;
61675;SDS011;47574;52.090;5.244;2023-04-24T11:46:20;3.7;;;0.8;;
61675;SDS011;47574;52.090;5.244;2023-04-24T11:47:56;3.5;;;0.8;;
61675;SDS011;47574;52.090;5.244;2023-04-24T11:49:33;3.1;;;1.3;;
61675;SDS011;47574;52.090;5.244;2023-04-24T11:52:49;3.1;;;1.3;;
61675;SDS011;47574;52.090;5.244;2023-04-24T11:54:25;2.8;;;1.0;;
61675;SDS011;47574;52.090;5.244;2023-04-24T11:56:02;4.61;;;1.2;;
61675;SDS011;47574;52.090;5.244;2023-04-24T11:59:17;3.2;;;1.0;;
61675;SDS011;47574;52.090;5.244;2023-04-24T12:00:55;4.7;;;1.11;;
61675;SDS011;47574;52.090;5.244;2023-04-24T12:02:32;7.4;;;1.4;;
61675;SDS011;47574;52.090;5.244;2023-04-24T12:04:08;3.3;;;1.0;;
61675;SDS011;47574;52.090;5.244;2023-04-24T12:07:21;4.0;;;1.11;;
61675;SDS011;47574;52.090;5.244;2023-04-24T12:08:59;6.7;;;1.5;;
61675;SDS011;47574;52.090;5.244;2023-04-24T12:10:35;5.9;;;1.4;;
61675;SDS011;47574;52.090;5.244;2023-04-24T12:13:48;3.3;;;1.3;;
61675;SDS011;47574;52.090;5.244;2023-04-24T12:15:24;6.0;;;1.3;;
61675;SDS011;47574;52.090;5.244;2023-04-24T12:17:01;8.9;;;1.6;;
61675;SDS011;47574;52.090;5.244;2023-04-24T12:20:23;5.6;;;1.4;;
61675;SDS011;47574;52.090;5.244;2023-04-24T12:22:01;4.41;;;1.4;;
61675;SDS011;47574;52.090;5.244;2023-04-24T12:23:42;7.6;;;1.5;;
61675;SDS011;47574;52.090;5.244;2023-04-24T12:25:18;7.2;;;1.4;;
61675;SDS011;47574;52.090;5.244;2023-04-24T12:28:36;5.0;;;1.4;;
61675;SDS011;47574;52.090;5.244;2023-04-24T12:30:14;5.5;;;1.5;;
61675;SDS011;47574;52.090;5.244;2023-04-24T12:31:51;3.8;;;1.5;;
61675;SDS011;47574;52.090;5.244;2023-04-24T12:33:27;5.9;;;1.8;;
61675;SDS011;47574;52.090;5.244;2023-04-24T12:36:45;8.81;;;1.5;;
61675;SDS011;47574;52.090;5.244;2023-04-24T12:38:23;6.7;;;1.8;;
61675;SDS011;47574;52.090;5.244;2023-04-24T12:40:02;7.7;;;2.5;;
61675;SDS011;47574;52.090;5.244;2023-04-24T12:43:27;8.81;;;2.21;;
61675;SDS011;47574;52.090;5.244;2023-04-24T12:45:04;9.21;;;2.4;;
61675;SDS011;47574;52.090;5.244;2023-04-24T12:46:42;8.9;;;2.21;;
61675;SDS011;47574;52.090;5.244;2023-04-24T12:48:18;10.8;;;2.8;;
61675;SDS011;47574;52.090;5.244;2023-04-24T12:51:30;9.4;;;2.5;;
61675;SDS011;47574;52.090;5.244;2023-04-24T12:53:07;9.4;;;2.1;;
61675;SDS011;47574;52.090;5.244;2023-04-24T12:54:44;8.6;;;2.0;;
61675;SDS011;47574;52.090;5.244;2023-04-24T12:57:57;9.4;;;2.21;;
61675;SDS011;47574;52.090;5.244;2023-04-24T12:59:33;9.1;;;2.4;;
61675;SDS011;47574;52.090;5.244;2023-04-24T13:01:09;9.5;;;2.5;;